createdAt,value
2019-03-25T00:02:25.921Z,74.60
2019-03-25T00:04:56.614Z,74.70
2019-03-25T00:07:27.101Z,74.70
2019-03-25T00:09:57.832Z,75.00
2019-03-25T00:12:28.532Z,75.10
2019-03-25T00:14:59.199Z,75.00
2019-03-25T00:17:29.977Z,75.30
2019-03-25T00:20:00.798Z,75.40
2019-03-25T00:22:31.552Z,75.30
2019-03-25T00:25:02.804Z,75.50
2019-03-25T00:27:33.305Z,75.40
2019-03-25T00:30:03.941Z,75.30
2019-03-25T00:32:34.661Z,75.00
2019-03-25T00:35:05.403Z,75.40
2019-03-25T00:37:36.103Z,75.10
2019-03-25T00:40:07.128Z,74.80
2019-03-25T00:42:37.784Z,73.40
2019-03-25T00:45:08.647Z,73.70
2019-03-25T00:47:39.328Z,72.80
2019-03-25T00:50:10.051Z,72.20
2019-03-25T00:52:40.771Z,73.00
2019-03-25T00:55:11.653Z,73.60
2019-03-25T00:57:42.202Z,73.90
2019-03-25T01:00:12.940Z,74.40
2019-03-25T01:02:43.695Z,74.50
2019-03-25T01:05:14.538Z,74.70
2019-03-25T01:07:45.019Z,74.70
2019-03-25T01:10:15.716Z,74.10
2019-03-25T01:12:46.519Z,73.80
2019-03-25T01:15:18.482Z,74.40
2019-03-25T01:17:49.435Z,74.50
2019-03-25T01:20:20.158Z,74.80
2019-03-25T01:22:50.710Z,75.00
2019-03-25T01:25:21.257Z,74.90
2019-03-25T01:27:54.738Z,75.70
2019-03-25T01:30:25.565Z,76.00
2019-03-25T01:32:56.230Z,76.10
2019-03-25T01:35:27.061Z,76.60
2019-03-25T01:37:57.729Z,76.90
2019-03-25T01:40:28.455Z,76.60
2019-03-25T01:42:59.203Z,76.70
2019-03-25T01:45:29.951Z,77.20
2019-03-25T01:48:00.445Z,77.20
2019-03-25T01:50:31.271Z,77.70
2019-03-25T01:53:01.787Z,78.50
2019-03-25T01:55:32.574Z,78.50
2019-03-25T01:58:03.248Z,78.50
2019-03-25T02:00:33.949Z,78.40
2019-03-25T02:03:04.731Z,78.80
2019-03-25T02:05:35.552Z,79.20
2019-03-25T02:08:06.329Z,78.90
2019-03-25T02:10:37.147Z,79.10
2019-03-25T02:13:07.899Z,79.50
2019-03-25T02:15:38.777Z,78.60
2019-03-25T02:18:09.500Z,79.40
2019-03-25T02:20:40.325Z,79.10
2019-03-25T02:23:11.076Z,78.60
2019-03-25T02:25:42.104Z,79.10
2019-03-25T02:28:13.017Z,79.50
2019-03-25T02:30:43.700Z,79.40
2019-03-25T02:33:14.461Z,79.30
2019-03-25T02:35:45.185Z,79.40
2019-03-25T02:38:15.934Z,79.50
2019-03-25T02:40:46.848Z,79.80
2019-03-25T02:43:17.651Z,79.90
2019-03-25T02:45:48.153Z,79.70
2019-03-25T02:48:19.046Z,80.40
2019-03-25T02:50:49.576Z,80.20
2019-03-25T02:53:20.332Z,80.80
2019-03-25T02:55:51.196Z,80.40
2019-03-25T02:58:21.894Z,80.40
2019-03-25T03:04:21.565Z,80.60
2019-03-25T03:06:52.397Z,80.60
2019-03-25T03:09:23.097Z,80.90
2019-03-25T03:11:53.850Z,80.70
2019-03-25T03:14:24.478Z,80.80
2019-03-25T03:16:55.273Z,80.60
2019-03-25T03:19:25.829Z,80.20
2019-03-25T03:21:56.625Z,80.60
2019-03-25T03:24:27.109Z,80.90
2019-03-25T03:26:57.876Z,80.50
2019-03-25T03:29:28.690Z,80.40
2019-03-25T03:31:59.449Z,80.30
2019-03-25T03:34:30.317Z,79.60
2019-03-25T03:37:00.997Z,79.90
2019-03-25T03:39:31.680Z,80.00
2019-03-25T03:42:02.228Z,80.00
2019-03-25T03:44:32.888Z,80.00
2019-03-25T03:47:03.620Z,79.50
2019-03-25T03:49:34.150Z,79.00
2019-03-25T03:52:05.068Z,79.00
2019-03-25T03:54:36.206Z,78.70
2019-03-25T03:57:06.949Z,79.00
2019-03-25T03:59:37.893Z,78.70
2019-03-25T04:02:08.376Z,78.70
2019-03-25T04:04:39.262Z,78.80
2019-03-25T04:07:10.123Z,78.50
2019-03-25T04:09:40.779Z,78.50
2019-03-25T04:12:12.098Z,78.50
2019-03-25T04:14:42.942Z,78.60
2019-03-25T04:17:13.661Z,78.90
2019-03-25T04:19:44.552Z,79.20
2019-03-25T04:22:15.065Z,79.60
2019-03-25T04:24:45.554Z,80.50
2019-03-25T04:27:16.460Z,80.20
2019-03-25T04:29:47.265Z,80.20
2019-03-25T04:32:18.150Z,80.20
2019-03-25T04:34:48.813Z,79.40
2019-03-25T04:37:19.443Z,79.50
2019-03-25T04:39:50.159Z,79.50
2019-03-25T04:42:20.757Z,79.40
2019-03-25T04:44:51.477Z,79.60
2019-03-25T04:47:22.002Z,79.30
2019-03-25T04:49:52.836Z,79.50
2019-03-25T04:52:23.470Z,79.50
2019-03-25T04:54:54.333Z,79.20
2019-03-25T04:57:26.274Z,79.30
2019-03-25T04:59:57.073Z,79.50
2019-03-25T05:02:27.974Z,79.20
2019-03-25T05:04:58.782Z,79.50
2019-03-25T05:07:29.505Z,79.80
2019-03-25T05:10:00.413Z,79.60
2019-03-25T05:12:31.266Z,79.20
2019-03-25T05:15:02.026Z,79.70
2019-03-25T05:17:32.868Z,79.50
2019-03-25T05:20:03.737Z,79.40
2019-03-25T05:22:34.623Z,79.50
2019-03-25T05:25:05.303Z,79.80
2019-03-25T05:27:36.177Z,79.90
2019-03-25T05:30:07.088Z,80.40
2019-03-25T05:32:37.972Z,80.10
2019-03-25T05:35:08.880Z,80.20
2019-03-25T05:37:39.394Z,79.90
2019-03-25T05:40:09.908Z,80.00
2019-03-25T05:42:40.443Z,80.50
2019-03-25T05:45:11.503Z,80.30
2019-03-25T05:47:42.058Z,80.30
2019-03-25T05:50:12.558Z,79.80
2019-03-25T05:52:43.163Z,79.40
2019-03-25T05:55:13.866Z,79.50
2019-03-25T05:57:44.728Z,79.80
2019-03-25T06:00:16.895Z,79.50
2019-03-25T06:02:47.547Z,79.40
2019-03-25T06:05:18.032Z,79.50
2019-03-25T06:07:48.892Z,79.50
2019-03-25T06:10:19.573Z,79.90
2019-03-25T06:12:50.094Z,79.20
2019-03-25T06:15:20.798Z,79.10
2019-03-25T06:17:51.607Z,79.60
2019-03-25T06:20:22.442Z,79.00
2019-03-25T06:22:53.091Z,79.50
2019-03-25T06:25:23.719Z,79.90
2019-03-25T06:27:54.489Z,79.70
2019-03-25T06:30:25.091Z,79.90
2019-03-25T06:32:55.705Z,80.20
2019-03-25T06:35:26.426Z,79.50
2019-03-25T06:37:56.978Z,80.00
2019-03-25T06:40:27.602Z,79.20
2019-03-25T06:42:58.177Z,79.20
2019-03-25T06:45:28.855Z,78.90
2019-03-25T06:47:59.703Z,79.60
2019-03-25T06:50:30.449Z,78.50
2019-03-25T06:53:01.102Z,79.00
2019-03-25T06:55:31.657Z,78.30
2019-03-25T06:58:02.215Z,78.10
2019-03-25T07:00:32.975Z,79.40
2019-03-25T07:03:03.627Z,79.20
2019-03-25T07:05:34.263Z,78.80
2019-03-25T07:08:04.861Z,79.50
2019-03-25T07:10:36.371Z,79.60
2019-03-25T07:13:07.135Z,79.10
2019-03-25T07:15:37.738Z,78.10
2019-03-25T07:18:08.438Z,79.10
2019-03-25T07:20:38.982Z,79.50
2019-03-25T07:23:09.839Z,79.60
2019-03-25T07:25:40.462Z,76.60
2019-03-25T07:28:11.038Z,75.40
2019-03-25T07:30:41.697Z,76.00
2019-03-25T07:33:12.566Z,74.70
2019-03-25T07:35:43.471Z,75.00
2019-03-25T07:38:14.421Z,73.50
2019-03-25T07:40:45.179Z,73.90
2019-03-25T07:43:15.999Z,75.00
2019-03-25T07:45:46.562Z,73.10
2019-03-25T07:48:17.502Z,73.60
2019-03-25T07:50:48.347Z,72.40
2019-03-25T07:53:18.931Z,71.70
2019-03-25T07:55:49.574Z,70.50
2019-03-25T07:58:20.137Z,71.00
2019-03-25T08:00:51.167Z,71.30
2019-03-25T08:03:21.943Z,69.80
2019-03-25T08:05:52.562Z,70.00
2019-03-25T08:08:23.359Z,69.60
2019-03-25T08:10:54.267Z,69.80
2019-03-25T08:13:30.835Z,69.70
2019-03-25T08:16:03.448Z,68.90
2019-03-25T08:18:38.064Z,66.60
2019-03-25T08:21:08.709Z,65.70
2019-03-25T08:23:45.803Z,65.30
2019-03-25T08:26:16.628Z,60.00
2019-03-25T08:28:47.462Z,60.90
2019-03-25T08:31:18.296Z,59.50
2019-03-25T08:33:52.605Z,62.30
2019-03-25T08:36:23.254Z,59.70
2019-03-25T08:38:53.802Z,59.50
2019-03-25T08:41:36.475Z,60.70
2019-03-25T08:44:07.260Z,61.00
2019-03-25T08:46:40.293Z,61.20
2019-03-25T08:49:12.109Z,62.90
2019-03-25T08:51:43.587Z,61.30
2019-03-25T08:54:14.213Z,62.70
2019-03-25T08:56:45.081Z,62.50
2019-03-25T08:59:15.831Z,64.10
2019-03-25T09:01:46.707Z,67.30
2019-03-25T09:04:17.353Z,65.70
2019-03-25T09:06:48.129Z,66.50
2019-03-25T09:09:18.803Z,65.50
2019-03-25T09:11:51.679Z,65.60
2019-03-25T09:14:21.903Z,63.90
2019-03-25T09:16:52.759Z,65.10
2019-03-25T09:19:23.371Z,63.30
2019-03-25T09:21:54.022Z,64.60
2019-03-25T09:24:25.065Z,60.50
2019-03-25T09:26:55.775Z,62.00
2019-03-25T09:29:26.375Z,58.80
2019-03-25T09:31:57.200Z,59.70
2019-03-25T09:34:28.035Z,61.00
2019-03-25T09:36:58.825Z,60.70
2019-03-25T09:39:29.533Z,61.80
2019-03-25T09:42:00.038Z,59.80
2019-03-25T09:44:30.544Z,58.40
2019-03-25T09:47:01.470Z,58.50
2019-03-25T09:49:32.253Z,58.20
2019-03-25T09:52:03.371Z,58.00
2019-03-25T09:54:34.049Z,58.20
2019-03-25T09:57:05.566Z,56.70
2019-03-25T09:59:36.682Z,56.30
2019-03-25T10:02:10.251Z,57.40
2019-03-25T10:04:41.151Z,54.60
2019-03-25T10:07:22.257Z,54.20
2019-03-25T10:09:53.202Z,54.20
2019-03-25T10:12:24.224Z,55.50
2019-03-25T10:14:55.008Z,55.70
2019-03-25T10:17:25.962Z,53.90
2019-03-25T10:19:57.486Z,54.40
2019-03-25T10:22:28.069Z,54.50
2019-03-25T10:24:58.766Z,54.90
2019-03-25T10:27:29.629Z,54.00
2019-03-25T10:30:00.341Z,54.60
2019-03-25T10:32:31.181Z,54.80
2019-03-25T10:35:02.049Z,56.30
2019-03-25T10:37:32.734Z,56.30
2019-03-25T10:40:03.307Z,55.20
2019-03-25T10:42:34.128Z,56.30
2019-03-25T10:45:05.135Z,55.80
2019-03-25T10:47:35.924Z,54.50
2019-03-25T10:50:07.099Z,56.20
2019-03-25T10:52:37.853Z,55.00
2019-03-25T10:55:08.442Z,55.40
2019-03-25T10:57:39.068Z,54.20
2019-03-25T11:00:10.692Z,53.10
2019-03-25T11:02:41.539Z,53.20
2019-03-25T11:05:12.175Z,54.80
2019-03-25T11:10:14.227Z,53.40
2019-03-25T11:12:45.079Z,53.10
2019-03-25T11:15:15.610Z,52.80
2019-03-25T11:17:46.371Z,52.30
2019-03-25T11:20:17.261Z,52.00
2019-03-25T11:22:47.817Z,52.30
2019-03-25T11:25:18.442Z,52.60
2019-03-25T11:27:54.365Z,49.30
2019-03-25T11:30:51.176Z,48.00
2019-03-25T11:33:22.263Z,48.50
2019-03-25T11:35:53.053Z,47.60
2019-03-25T11:38:23.922Z,48.80
2019-03-25T11:40:54.500Z,50.20
2019-03-25T11:43:25.384Z,47.00
2019-03-25T11:45:56.083Z,48.90
2019-03-25T11:48:27.171Z,44.10
2019-03-25T11:51:09.000Z,44.70
2019-03-25T11:54:01.911Z,44.70
2019-03-25T11:56:30.051Z,44.50
2019-03-25T11:59:06.342Z,45.30
2019-03-25T12:02:22.817Z,44.10
2019-03-25T12:05:12.968Z,44.80
2019-03-25T12:08:52.216Z,45.70
2019-03-25T12:11:37.559Z,46.30
2019-03-25T12:41:41.666Z,45.40
2019-03-25T12:44:13.812Z,47.40
2019-03-25T12:46:46.050Z,45.50
2019-03-25T12:49:16.600Z,47.60
2019-03-25T12:51:49.283Z,47.20
2019-03-25T12:54:28.672Z,47.10
2019-03-25T12:57:03.158Z,46.80
2019-03-25T12:59:55.131Z,47.60
2019-03-25T13:02:33.561Z,48.20
2019-03-25T13:05:05.622Z,46.40
2019-03-25T13:07:39.802Z,48.00
2019-03-25T13:10:13.984Z,46.40
2019-03-25T13:12:44.742Z,48.90
2019-03-25T13:15:15.313Z,48.10
2019-03-25T13:17:46.059Z,47.60
2019-03-25T13:20:22.627Z,48.00
2019-03-25T13:22:52.465Z,47.90
2019-03-25T13:25:25.345Z,47.60
2019-03-25T13:28:07.108Z,48.20
2019-03-25T13:30:40.530Z,48.90
2019-03-25T13:33:11.053Z,47.20
2019-03-25T13:35:41.713Z,50.70
2019-03-25T13:38:27.189Z,45.80
2019-03-25T13:40:50.853Z,42.40
2019-03-25T13:43:25.545Z,44.60
2019-03-25T13:46:05.345Z,44.60
2019-03-25T13:48:36.196Z,46.10
2019-03-25T13:55:20.997Z,46.20
2019-03-25T13:57:52.104Z,49.00
2019-03-25T14:00:44.678Z,47.90
2019-03-25T14:03:15.628Z,47.50
2019-03-25T14:05:46.601Z,46.50
2019-03-25T14:08:17.721Z,47.40
2019-03-25T14:10:48.599Z,49.20
2019-03-25T14:13:19.931Z,49.20
2019-03-25T14:16:13.923Z,48.10
2019-03-25T14:18:36.089Z,46.70
2019-03-25T14:21:06.782Z,46.60
2019-03-25T14:23:37.473Z,46.00
2019-03-25T14:26:13.105Z,48.80
2019-03-25T14:28:48.554Z,50.30
2019-03-25T14:31:19.720Z,50.30
2019-03-25T14:33:50.455Z,51.10
2019-03-25T14:36:21.154Z,52.90
2019-03-25T14:38:51.768Z,53.30
2019-03-25T14:41:22.542Z,53.00
2019-03-25T14:43:53.215Z,54.50
2019-03-25T14:46:24.003Z,56.30
2019-03-25T14:48:57.389Z,56.00
2019-03-25T14:51:28.003Z,56.40
2019-03-25T14:53:58.577Z,57.60
2019-03-25T14:56:29.149Z,59.20
2019-03-25T14:58:59.645Z,61.70
2019-03-25T15:01:30.210Z,63.80
2019-03-25T15:04:00.768Z,65.70
2019-03-25T15:06:31.318Z,68.00
2019-03-25T15:09:01.900Z,70.00
2019-03-25T15:11:32.495Z,71.40
2019-03-25T15:14:03.240Z,72.60
2019-03-25T15:16:35.396Z,72.20
2019-03-25T15:19:05.970Z,73.10
2019-03-25T15:21:36.749Z,73.80
2019-03-25T15:24:07.420Z,72.70
2019-03-25T15:26:38.180Z,73.40
2019-03-25T15:29:08.801Z,74.00
2019-03-25T15:31:39.453Z,74.30
2019-03-25T15:34:10.122Z,74.10
2019-03-25T15:36:40.840Z,73.60
2019-03-25T15:39:11.357Z,72.90
2019-03-25T15:41:41.894Z,71.90
2019-03-25T15:44:12.385Z,72.70
2019-03-25T15:46:42.916Z,71.20
2019-03-25T15:49:13.444Z,71.70
2019-03-25T15:51:44.048Z,70.30
2019-03-25T15:54:14.858Z,70.80
2019-03-25T15:56:45.406Z,68.90
2019-03-25T15:59:15.945Z,67.50
2019-03-25T16:01:46.493Z,67.80
2019-03-25T16:04:17.042Z,68.70
2019-03-25T16:06:47.617Z,69.30
2019-03-25T16:09:18.349Z,68.00
2019-03-25T16:11:49.528Z,66.50
2019-03-25T16:14:23.392Z,66.50
2019-03-25T16:16:58.060Z,66.40
2019-03-25T16:19:46.548Z,64.80
2019-03-25T16:22:17.534Z,65.20
2019-03-25T16:25:10.156Z,65.00
2019-03-25T16:31:10.081Z,66.30
2019-03-25T16:33:43.880Z,67.30
2019-03-25T16:36:14.381Z,66.90
2019-03-25T16:38:45.121Z,67.40
2019-03-25T16:41:15.732Z,67.60
2019-03-25T16:43:46.332Z,67.00
2019-03-25T16:46:16.844Z,66.20
2019-03-25T16:48:47.863Z,66.80
2019-03-25T16:51:18.360Z,64.90
2019-03-25T16:53:48.868Z,66.40
2019-03-25T16:56:19.461Z,66.30
2019-03-25T16:58:50.194Z,65.60
2019-03-25T17:01:20.746Z,71.00
2019-03-25T17:03:51.362Z,75.70
2019-03-25T17:06:22.136Z,78.90
2019-03-25T17:08:52.651Z,81.30
2019-03-25T17:11:23.501Z,81.60
2019-03-25T17:13:54.026Z,82.90
2019-03-25T17:16:24.519Z,83.80
2019-03-25T17:18:55.079Z,84.40
2019-03-25T17:21:25.637Z,84.70
2019-03-25T17:23:56.184Z,84.30
2019-03-25T17:26:26.709Z,83.10
2019-03-25T17:28:57.270Z,80.40
2019-03-25T17:31:27.790Z,79.70
2019-03-25T17:33:58.368Z,80.70
2019-03-25T17:36:28.905Z,81.60
2019-03-25T17:38:59.459Z,78.10
2019-03-25T17:41:29.999Z,78.50
2019-03-25T17:44:00.616Z,79.50
2019-03-25T17:46:31.257Z,79.60
2019-03-25T17:49:04.262Z,79.50
2019-03-25T17:51:34.855Z,78.50
2019-03-25T17:54:05.473Z,78.20
2019-03-25T17:56:36.094Z,78.70
2019-03-25T17:59:06.855Z,78.00
2019-03-25T18:01:38.574Z,78.20
2019-03-25T18:04:09.207Z,78.10
2019-03-25T18:06:39.750Z,78.30
2019-03-25T18:09:11.025Z,78.00
2019-03-25T18:11:41.688Z,78.40
2019-03-25T18:14:12.360Z,76.90
2019-03-25T18:16:42.961Z,77.10
2019-03-25T18:19:13.509Z,76.70
2019-03-25T18:21:44.145Z,76.80
2019-03-25T18:24:14.861Z,75.40
2019-03-25T18:26:45.389Z,76.30
2019-03-25T18:29:17.127Z,76.30
2019-03-25T18:31:48.455Z,76.50
2019-03-25T18:34:18.975Z,77.40
2019-03-25T18:36:49.480Z,77.90
2019-03-25T18:39:20.024Z,76.40
2019-03-25T18:41:50.800Z,76.40
2019-03-25T18:44:21.342Z,75.90
2019-03-25T18:46:51.967Z,75.00
2019-03-25T18:49:22.522Z,75.80
2019-03-25T18:51:53.098Z,76.30
2019-03-25T18:54:23.789Z,75.70
2019-03-25T18:56:54.369Z,76.40
2019-03-25T18:59:25.021Z,77.00
2019-03-25T19:01:55.623Z,77.20
2019-03-25T19:04:27.331Z,77.50
2019-03-25T19:06:57.920Z,77.70
2019-03-25T19:09:28.426Z,76.50
2019-03-25T19:11:59.001Z,77.70
2019-03-25T19:14:29.527Z,77.70
2019-03-25T19:17:00.198Z,78.40
2019-03-25T19:19:30.722Z,77.70
2019-03-25T19:22:05.481Z,77.80
2019-03-25T19:24:36.258Z,78.20
2019-03-25T19:27:06.866Z,78.50
2019-03-25T19:29:37.492Z,78.70
2019-03-25T19:32:20.331Z,78.20
2019-03-25T19:34:50.932Z,78.30
2019-03-25T19:37:21.465Z,77.90
2019-03-25T19:39:52.085Z,78.10
2019-03-25T19:42:22.704Z,78.70
2019-03-25T19:44:53.246Z,79.00
2019-03-25T19:47:23.883Z,78.50
2019-03-25T19:49:54.426Z,79.40
2019-03-25T19:52:25.013Z,78.60
2019-03-25T19:54:55.577Z,78.40
2019-03-25T19:57:28.302Z,78.10
2019-03-25T19:59:58.369Z,78.50
2019-03-25T20:02:28.928Z,77.70
2019-03-25T20:04:59.551Z,77.50
2019-03-25T20:07:30.186Z,77.70
2019-03-25T20:10:00.755Z,78.30
2019-03-25T20:12:31.348Z,77.70
2019-03-25T20:15:02.026Z,78.70
2019-03-25T20:17:32.592Z,77.50
2019-03-25T20:20:03.138Z,77.50
2019-03-25T20:22:33.723Z,77.40
2019-03-25T20:25:04.434Z,77.00
2019-03-25T20:27:35.113Z,77.60
2019-03-25T20:30:05.890Z,77.70
2019-03-25T20:32:36.560Z,78.20
2019-03-25T20:35:07.152Z,78.70
2019-03-25T20:37:37.760Z,78.90
2019-03-25T20:40:08.451Z,80.10
2019-03-25T20:42:39.034Z,80.10
2019-03-25T20:45:09.536Z,80.40
2019-03-25T20:47:40.131Z,80.80
2019-03-25T20:50:10.769Z,81.00
2019-03-25T20:52:41.418Z,82.30
2019-03-25T20:55:30.745Z,82.30
2019-03-25T20:58:01.381Z,82.20
2019-03-25T21:00:54.284Z,81.20
2019-03-25T21:03:24.830Z,81.50
2019-03-25T21:05:55.539Z,81.50
2019-03-25T21:08:26.248Z,81.50
2019-03-25T21:10:56.847Z,81.80
2019-03-25T21:13:27.436Z,81.50
2019-03-25T21:15:58.117Z,81.50
2019-03-25T21:18:28.713Z,81.30
2019-03-25T21:20:59.452Z,81.80
2019-03-25T21:23:29.994Z,82.10
2019-03-25T21:26:00.564Z,82.50
2019-03-25T21:28:31.200Z,82.10
2019-03-25T21:31:01.779Z,82.50
2019-03-25T21:33:32.348Z,82.50
2019-03-25T21:36:02.974Z,82.30
2019-03-25T21:38:33.630Z,82.70
2019-03-25T21:41:04.229Z,82.20
2019-03-25T21:43:34.865Z,82.70
2019-03-25T21:46:05.422Z,83.10
2019-03-25T21:48:36.181Z,83.40
2019-03-25T21:51:06.823Z,83.50
2019-03-25T21:53:37.496Z,83.30
2019-03-25T21:56:08.006Z,83.50
2019-03-25T21:58:38.662Z,83.40
2019-03-25T22:01:09.237Z,83.50
2019-03-25T22:03:39.830Z,83.60
2019-03-25T22:06:10.423Z,83.40
2019-03-25T22:08:41.052Z,83.80
2019-03-25T22:11:11.692Z,83.70
2019-03-25T22:13:42.250Z,84.10
2019-03-25T22:16:12.879Z,84.00
2019-03-25T22:18:43.465Z,84.00
2019-03-25T22:21:14.009Z,83.80
2019-03-25T22:23:44.559Z,84.50
2019-03-25T22:26:15.150Z,83.90
2019-03-25T22:28:45.721Z,84.30
2019-03-25T22:31:16.362Z,84.20
2019-03-25T22:33:46.942Z,84.30
2019-03-25T22:36:17.476Z,83.70
2019-03-25T22:38:48.064Z,83.50
2019-03-25T22:41:18.681Z,83.60
2019-03-25T22:43:49.252Z,83.50
2019-03-25T22:46:19.832Z,83.00
2019-03-25T22:48:50.425Z,82.90
2019-03-25T22:51:22.027Z,83.10
2019-03-25T22:53:52.664Z,82.90
2019-03-25T22:56:23.316Z,82.70
2019-03-25T22:58:53.913Z,82.70
2019-03-25T23:01:24.524Z,82.70
2019-03-25T23:03:55.192Z,83.50
2019-03-25T23:06:25.789Z,83.00
2019-03-25T23:08:56.373Z,83.00
2019-03-25T23:11:27.017Z,83.50
2019-03-25T23:13:57.646Z,82.50
2019-03-25T23:16:28.234Z,82.70
2019-03-25T23:18:58.868Z,83.20
2019-03-25T23:21:29.509Z,83.10
2019-03-25T23:24:00.182Z,83.00
2019-03-25T23:26:30.747Z,82.70
2019-03-25T23:29:01.424Z,83.30
2019-03-25T23:31:32.026Z,82.00
2019-03-25T23:34:02.631Z,81.90
2019-03-25T23:36:33.248Z,82.60
2019-03-25T23:39:05.047Z,83.10
2019-03-25T23:41:35.592Z,83.10
2019-03-25T23:44:06.208Z,83.20
2019-03-25T23:46:36.810Z,83.70
2019-03-25T23:49:07.361Z,83.80
2019-03-25T23:51:37.936Z,83.30
2019-03-25T23:54:17.351Z,83.80
2019-03-25T23:56:47.965Z,83.70
2019-03-25T23:59:18.548Z,83.40
